createdAt,value
2022-10-25T00:02:19.980Z,14.60
2022-10-25T00:04:47.467Z,8.48
2022-10-25T00:07:14.611Z,9.60
2022-10-25T00:09:43.869Z,10.02
2022-10-25T00:12:10.576Z,8.75
2022-10-25T00:14:37.169Z,21.95
2022-10-25T00:17:03.929Z,10.13
2022-10-25T00:19:30.678Z,14.75
2022-10-25T00:21:57.682Z,12.95
2022-10-25T00:24:24.336Z,14.57
2022-10-25T00:26:51.023Z,15.35
2022-10-25T00:29:18.122Z,12.00
2022-10-25T00:31:45.035Z,12.63
2022-10-25T00:34:11.714Z,11.30
2022-10-25T00:36:38.402Z,9.70
2022-10-25T00:39:05.130Z,14.55
2022-10-25T00:41:33.859Z,11.60
2022-10-25T00:44:38.521Z,15.15
2022-10-25T00:47:18.122Z,10.32
2022-10-25T00:49:52.848Z,12.20
2022-10-25T00:52:19.790Z,8.18
2022-10-25T00:54:51.120Z,12.75
2022-10-25T00:57:22.562Z,11.70
2022-10-25T00:59:49.500Z,15.55
2022-10-25T01:02:17.945Z,13.48
2022-10-25T01:04:44.694Z,12.77
2022-10-25T01:07:11.665Z,19.27
2022-10-25T01:09:39.723Z,8.45
2022-10-25T01:12:06.474Z,21.05
2022-10-25T01:14:40.750Z,21.25
2022-10-25T01:17:19.840Z,15.23
2022-10-25T01:20:15.665Z,19.48
2022-10-25T01:25:56.431Z,11.77
2022-10-25T01:28:54.893Z,14.38
2022-10-25T01:31:32.921Z,15.30
2022-10-25T01:34:26.952Z,11.73
2022-10-25T01:37:05.603Z,12.32
2022-10-25T01:39:37.893Z,11.05
2022-10-25T01:42:27.889Z,11.45
2022-10-25T01:45:21.182Z,11.93
2022-10-25T01:47:51.991Z,18.33
2022-10-25T01:50:26.454Z,20.67
2022-10-25T01:55:31.251Z,18.35
2022-10-25T01:58:19.150Z,14.68
2022-10-25T02:01:02.026Z,15.63
2022-10-25T02:03:52.448Z,9.30
2022-10-25T02:06:35.160Z,11.10
2022-10-25T02:09:34.166Z,14.43
2022-10-25T02:12:02.419Z,14.27
2022-10-25T02:14:41.513Z,14.52
2022-10-25T02:17:17.314Z,14.20
2022-10-25T02:19:49.334Z,14.63
2022-10-25T02:22:18.324Z,11.77
2022-10-25T02:24:47.078Z,17.15
2022-10-25T02:27:15.064Z,15.07
2022-10-25T02:29:44.447Z,8.70
2022-10-25T02:32:11.189Z,10.45
2022-10-25T02:34:39.121Z,11.77
2022-10-25T02:37:06.054Z,10.77
2022-10-25T02:39:34.345Z,14.88
2022-10-25T02:42:04.534Z,10.45
2022-10-25T02:44:31.761Z,10.25
2022-10-25T02:46:58.694Z,11.35
2022-10-25T02:49:25.518Z,9.93
2022-10-25T02:54:24.053Z,15.70
2022-10-25T02:56:52.342Z,15.05
2022-10-25T02:59:22.346Z,16.77
2022-10-25T03:01:49.166Z,15.10
2022-10-25T03:04:15.981Z,10.45
2022-10-25T03:06:42.671Z,11.43
2022-10-25T03:09:09.449Z,15.80
2022-10-25T03:11:36.108Z,16.73
2022-10-25T03:14:02.806Z,15.25
2022-10-25T03:16:30.291Z,12.68
2022-10-25T03:18:58.205Z,13.00
2022-10-25T03:21:25.389Z,19.77
2022-10-25T03:23:52.478Z,15.63
2022-10-25T03:26:19.253Z,14.18
2022-10-25T03:28:46.159Z,14.98
2022-10-25T03:31:15.120Z,15.18
2022-10-25T03:33:42.760Z,17.70
2022-10-25T03:36:10.043Z,17.70
2022-10-25T03:38:36.896Z,11.35
2022-10-25T03:41:04.115Z,10.68
2022-10-25T03:43:33.476Z,11.02
2022-10-25T03:46:00.296Z,15.35
2022-10-25T03:48:27.249Z,14.48
2022-10-25T03:50:54.383Z,13.02
2022-10-25T03:53:21.225Z,15.18
2022-10-25T03:55:49.723Z,14.02
2022-10-25T03:58:17.294Z,12.45
2022-10-25T04:00:44.124Z,11.85
2022-10-25T04:03:10.942Z,14.00
2022-10-25T04:05:37.749Z,18.45
2022-10-25T04:08:04.731Z,17.00
2022-10-25T04:10:31.772Z,11.20
2022-10-25T04:12:58.919Z,13.38
2022-10-25T04:15:25.569Z,13.82
2022-10-25T04:17:53.362Z,13.88
2022-10-25T04:20:20.905Z,13.73
2022-10-25T04:22:54.372Z,14.00
2022-10-25T04:25:21.980Z,14.32
2022-10-25T04:27:51.958Z,12.13
2022-10-25T04:30:18.820Z,13.40
2022-10-25T04:32:45.955Z,12.57
2022-10-25T04:35:13.142Z,14.02
2022-10-25T04:37:39.876Z,10.93
2022-10-25T04:40:07.321Z,14.25
2022-10-25T04:42:34.465Z,11.75
2022-10-25T04:45:01.961Z,12.45
2022-10-25T04:47:33.121Z,13.73
2022-10-25T04:50:00.136Z,12.02
2022-10-25T04:52:29.657Z,18.75
2022-10-25T04:54:56.834Z,18.85
2022-10-25T04:57:24.428Z,12.50
2022-10-25T04:59:52.454Z,13.13
2022-10-25T05:02:19.301Z,12.30
2022-10-25T05:04:45.979Z,10.50
2022-10-25T05:07:12.774Z,15.23
2022-10-25T05:09:41.672Z,22.50
2022-10-25T05:12:11.970Z,10.45
2022-10-25T05:14:38.706Z,16.83
2022-10-25T05:17:05.529Z,14.02
2022-10-25T05:19:32.226Z,15.82
2022-10-25T05:21:58.886Z,19.95
2022-10-25T05:24:25.752Z,13.77
2022-10-25T05:26:52.569Z,17.60
2022-10-25T05:29:19.259Z,13.98
2022-10-25T05:31:46.088Z,16.40
2022-10-25T05:34:12.739Z,14.73
2022-10-25T05:36:39.423Z,19.08
2022-10-25T05:39:06.179Z,16.10
2022-10-25T05:41:36.050Z,16.75
2022-10-25T05:44:04.851Z,14.13
2022-10-25T05:46:34.371Z,16.00
2022-10-25T05:49:01.245Z,18.70
2022-10-25T05:51:35.165Z,19.58
2022-10-25T05:54:09.117Z,12.00
2022-10-25T05:56:36.738Z,15.10
2022-10-25T05:59:11.975Z,22.25
2022-10-25T06:01:41.329Z,23.50
2022-10-25T06:04:09.353Z,21.55
2022-10-25T06:06:37.367Z,19.65
2022-10-25T06:09:05.074Z,20.85
2022-10-25T06:11:35.292Z,24.10
2022-10-25T06:14:02.530Z,21.60
2022-10-25T06:16:29.626Z,26.02
2022-10-25T06:18:57.154Z,21.85
2022-10-25T06:21:28.747Z,19.67
2022-10-25T06:23:56.306Z,22.95
2022-10-25T06:26:25.785Z,21.58
2022-10-25T06:28:55.280Z,30.65
2022-10-25T06:31:22.728Z,32.28
2022-10-25T06:33:49.665Z,22.95
2022-10-25T06:36:18.750Z,23.95
2022-10-25T06:38:46.375Z,20.13
2022-10-25T06:41:15.255Z,16.52
2022-10-25T06:43:42.152Z,15.07
2022-10-25T06:46:28.409Z,22.15
2022-10-25T06:48:57.628Z,24.23
2022-10-25T06:51:25.813Z,19.50
2022-10-25T06:54:01.201Z,25.55
2022-10-25T06:56:28.817Z,18.20
2022-10-25T06:58:56.176Z,25.02
2022-10-25T07:01:24.558Z,24.08
2022-10-25T07:03:53.636Z,37.80
2022-10-25T07:06:28.087Z,37.10
2022-10-25T07:08:57.046Z,29.92
2022-10-25T07:11:25.432Z,25.05
2022-10-25T07:13:52.251Z,28.15
2022-10-25T07:16:20.644Z,28.13
2022-10-25T07:18:48.345Z,26.70
2022-10-25T07:21:21.208Z,20.80
2022-10-25T07:23:49.667Z,26.70
2022-10-25T07:26:29.117Z,27.38
2022-10-25T07:28:57.030Z,20.65
2022-10-25T07:31:29.610Z,21.23
2022-10-25T07:33:59.483Z,18.90
2022-10-25T07:36:26.466Z,21.50
2022-10-25T07:38:53.347Z,25.90
2022-10-25T07:41:20.009Z,28.98
2022-10-25T07:43:46.751Z,26.90
2022-10-25T07:46:13.657Z,23.67
2022-10-25T07:48:40.468Z,16.75
2022-10-25T07:51:10.745Z,21.23
2022-10-25T07:53:37.466Z,17.92
2022-10-25T07:56:04.411Z,21.88
2022-10-25T07:58:31.694Z,16.88
2022-10-25T08:01:06.233Z,23.40
2022-10-25T08:03:33.020Z,20.65
2022-10-25T08:06:00.500Z,20.48
2022-10-25T08:08:27.456Z,22.15
2022-10-25T08:10:54.462Z,19.98
2022-10-25T08:13:21.113Z,25.00
2022-10-25T08:15:52.260Z,18.65
2022-10-25T08:18:19.032Z,19.40
2022-10-25T08:21:03.087Z,17.90
2022-10-25T08:23:32.203Z,11.20
2022-10-25T08:26:00.010Z,20.83
2022-10-25T08:28:26.781Z,18.17
2022-10-25T08:30:55.439Z,12.30
2022-10-25T08:33:22.865Z,18.27
2022-10-25T08:35:50.206Z,15.57
2022-10-25T08:38:17.068Z,17.25
2022-10-25T08:40:52.509Z,19.10
2022-10-25T08:43:37.660Z,18.33
2022-10-25T08:46:17.774Z,20.00
2022-10-25T08:48:53.854Z,13.48
2022-10-25T08:51:33.509Z,18.90
2022-10-25T08:54:06.031Z,18.20
2022-10-25T08:56:35.461Z,14.00
2022-10-25T08:59:06.496Z,16.70
2022-10-25T09:01:43.252Z,21.63
2022-10-25T09:04:10.563Z,21.92
2022-10-25T09:06:51.276Z,18.00
2022-10-25T09:09:25.169Z,14.80
2022-10-25T09:12:05.169Z,19.52
2022-10-25T09:14:44.115Z,18.65
2022-10-25T09:17:19.604Z,16.70
2022-10-25T09:19:49.345Z,17.35
2022-10-25T09:22:28.571Z,16.38
2022-10-25T09:25:05.223Z,17.33
2022-10-25T09:28:03.669Z,18.17
2022-10-25T09:30:35.361Z,18.73
2022-10-25T09:33:09.127Z,19.90
2022-10-25T09:35:46.339Z,19.88
2022-10-25T09:38:19.569Z,19.55
2022-10-25T09:40:49.919Z,20.08
2022-10-25T09:43:23.015Z,20.17
2022-10-25T09:45:55.533Z,24.65
2022-10-25T09:48:40.481Z,21.70
2022-10-25T09:51:15.250Z,21.05
2022-10-25T09:53:44.949Z,23.60
2022-10-25T09:56:12.332Z,22.40
2022-10-25T09:58:42.439Z,21.25
2022-10-25T10:01:21.539Z,21.90
2022-10-25T10:03:52.396Z,19.60
2022-10-25T10:06:31.477Z,21.40
2022-10-25T10:09:00.799Z,19.90
2022-10-25T10:11:29.078Z,21.52
2022-10-25T10:14:16.016Z,19.33
2022-10-25T10:16:47.654Z,19.52
2022-10-25T10:19:21.403Z,21.33
2022-10-25T10:21:54.913Z,19.35
2022-10-25T10:24:36.808Z,20.02
2022-10-25T10:27:22.095Z,21.00
2022-10-25T10:30:07.203Z,18.73
2022-10-25T10:35:27.936Z,18.95
2022-10-25T10:38:12.921Z,19.33
2022-10-25T10:40:39.565Z,19.65
2022-10-25T10:43:23.999Z,20.50
2022-10-25T10:45:51.560Z,21.75
2022-10-25T10:48:22.092Z,21.08
2022-10-25T10:50:50.804Z,22.83
2022-10-25T10:53:22.795Z,23.48
2022-10-25T10:55:53.932Z,25.20
2022-10-25T10:58:26.459Z,26.35
2022-10-25T11:01:05.750Z,24.73
2022-10-25T11:03:48.916Z,25.95
2022-10-25T11:06:30.157Z,23.58
2022-10-25T11:09:12.479Z,23.38
2022-10-25T11:11:40.091Z,22.90
2022-10-25T11:14:15.136Z,23.92
2022-10-25T11:19:40.541Z,23.20
2022-10-25T11:22:32.121Z,24.58
2022-10-25T11:25:08.542Z,24.42
2022-10-25T11:28:02.930Z,23.50
2022-10-25T11:30:58.018Z,25.58
2022-10-25T11:33:42.597Z,25.05
2022-10-25T11:36:32.367Z,25.80
2022-10-25T11:39:18.169Z,23.73
2022-10-25T11:41:48.811Z,24.75
2022-10-25T11:44:41.694Z,24.60
2022-10-25T11:47:24.428Z,26.52
2022-10-25T11:50:24.558Z,24.73
2022-10-25T11:53:06.115Z,24.45
2022-10-25T11:55:45.761Z,26.23
2022-10-25T11:58:38.308Z,25.60
2022-10-25T12:01:29.783Z,24.65
2022-10-25T12:04:18.743Z,25.27
2022-10-25T12:07:20.657Z,27.15
2022-10-25T12:10:02.985Z,25.17
2022-10-25T12:12:51.475Z,25.27
2022-10-25T12:15:26.930Z,25.58
2022-10-25T12:17:53.840Z,24.58
2022-10-25T12:20:25.187Z,23.52
2022-10-25T12:22:56.655Z,23.23
2022-10-25T12:25:33.758Z,22.77
2022-10-25T12:28:09.789Z,22.17
2022-10-25T12:30:37.877Z,22.38
2022-10-25T12:33:25.151Z,21.73
2022-10-25T12:35:58.423Z,22.77
2022-10-25T12:38:37.263Z,22.25
2022-10-25T12:41:08.959Z,23.73
2022-10-25T12:43:44.089Z,25.35
2022-10-25T12:48:52.608Z,25.67
2022-10-25T12:51:40.939Z,24.23
2022-10-25T12:54:15.603Z,22.67
2022-10-25T12:57:10.767Z,24.10
2022-10-25T13:00:04.498Z,25.05
2022-10-25T13:03:02.194Z,25.67
2022-10-25T13:05:53.661Z,26.58
2022-10-25T13:08:23.205Z,25.88
2022-10-25T13:11:03.935Z,24.85
2022-10-25T13:13:49.477Z,27.77
2022-10-25T13:16:28.529Z,25.92
2022-10-25T13:19:25.864Z,25.63
2022-10-25T13:22:12.507Z,26.40
2022-10-25T13:24:40.664Z,28.13
2022-10-25T13:27:13.539Z,29.83
2022-10-25T13:33:18.694Z,28.00
2022-10-25T13:35:48.051Z,28.63
2022-10-25T13:38:22.999Z,29.35
2022-10-25T13:41:16.936Z,28.67
2022-10-25T13:44:03.584Z,27.15
2022-10-25T13:46:33.786Z,26.70
2022-10-25T13:49:03.079Z,26.45
2022-10-25T13:51:31.965Z,28.55
2022-10-25T13:54:05.992Z,30.30
2022-10-25T13:56:36.674Z,29.00
2022-10-25T13:59:03.942Z,29.00
2022-10-25T14:01:31.371Z,28.38
2022-10-25T14:04:34.573Z,27.20
2022-10-25T14:07:40.837Z,29.58
2022-10-25T14:10:15.755Z,27.75
2022-10-25T14:12:48.558Z,28.63
2022-10-25T14:15:24.499Z,28.50
2022-10-25T14:17:52.582Z,25.77
2022-10-25T14:20:29.933Z,26.20
2022-10-25T14:23:06.860Z,26.15
2022-10-25T14:25:37.872Z,27.75
2022-10-25T14:28:10.480Z,27.00
2022-10-25T14:30:59.564Z,28.52
2022-10-25T14:33:45.834Z,28.27
2022-10-25T14:36:33.989Z,28.50
2022-10-25T14:39:20.363Z,28.77
2022-10-25T14:41:56.075Z,28.50
2022-10-25T14:44:28.423Z,29.42
2022-10-25T14:46:59.905Z,29.90
2022-10-25T14:49:27.351Z,30.42
2022-10-25T14:51:59.417Z,31.00
2022-10-25T14:54:36.418Z,31.00
2022-10-25T14:57:06.411Z,30.25
2022-10-25T14:59:50.735Z,31.20
2022-10-25T15:02:34.980Z,32.40
2022-10-25T15:05:02.922Z,30.23
2022-10-25T15:07:30.771Z,31.45
2022-10-25T15:10:00.483Z,31.38
2022-10-25T15:12:28.953Z,30.08
2022-10-25T15:14:57.829Z,32.28
2022-10-25T15:17:30.413Z,32.25
2022-10-25T15:22:37.351Z,31.17
2022-10-25T15:25:24.268Z,30.55
2022-10-25T15:27:54.674Z,30.25
2022-10-25T15:30:48.443Z,29.25
2022-10-25T15:33:20.106Z,30.52
2022-10-25T15:35:58.351Z,30.08
2022-10-25T15:39:05.319Z,29.35
2022-10-25T15:41:23.423Z,29.25
2022-10-25T15:43:50.861Z,29.42
2022-10-25T15:46:30.814Z,30.00
2022-10-25T15:49:04.497Z,32.83
2022-10-25T15:51:37.369Z,32.17
2022-10-25T15:54:04.088Z,35.30
2022-10-25T15:56:30.705Z,42.75
2022-10-25T15:59:00.145Z,39.60
2022-10-25T16:01:26.951Z,35.03
2022-10-25T16:03:53.653Z,35.40
2022-10-25T16:06:20.248Z,34.67
2022-10-25T16:08:46.843Z,35.33
2022-10-25T16:11:17.360Z,37.13
2022-10-25T16:13:46.090Z,45.40
2022-10-25T16:16:39.965Z,38.67
2022-10-25T16:19:15.745Z,41.60
2022-10-25T16:21:43.043Z,37.22
2022-10-25T16:24:10.982Z,39.08
2022-10-25T16:26:48.185Z,43.58
2022-10-25T16:29:25.207Z,45.97
2022-10-25T16:31:52.536Z,50.88
2022-10-25T16:34:19.469Z,40.13
2022-10-25T16:36:47.346Z,50.72
2022-10-25T16:39:14.215Z,47.10
2022-10-25T16:41:43.562Z,35.05
2022-10-25T16:44:15.545Z,32.22
2022-10-25T16:46:42.478Z,37.40
2022-10-25T16:49:09.394Z,36.20
2022-10-25T16:51:37.169Z,97.13
2022-10-25T16:54:04.121Z,37.05
2022-10-25T16:56:30.768Z,118.38
2022-10-25T16:58:57.389Z,286.27
2022-10-25T17:01:34.769Z,236.10
2022-10-25T17:04:03.452Z,184.85
2022-10-25T17:06:45.417Z,149.65
2022-10-25T17:09:12.216Z,134.13
2022-10-25T17:11:38.936Z,126.22
2022-10-25T17:14:05.857Z,103.75
2022-10-25T17:16:33.176Z,110.63
2022-10-25T17:19:00.168Z,65.55
2022-10-25T17:21:28.130Z,61.50
2022-10-25T17:23:56.223Z,65.47
2022-10-25T17:26:22.978Z,44.60
2022-10-25T17:28:49.619Z,38.95
2022-10-25T17:31:16.671Z,40.13
2022-10-25T17:33:43.365Z,39.42
2022-10-25T17:36:14.033Z,39.88
2022-10-25T17:38:41.344Z,48.40
2022-10-25T17:41:08.431Z,43.38
2022-10-25T17:43:36.180Z,45.10
2022-10-25T17:46:09.151Z,77.88
2022-10-25T17:48:35.773Z,62.28
2022-10-25T17:51:05.211Z,61.17
2022-10-25T17:53:32.123Z,63.95
2022-10-25T17:55:59.156Z,62.60
2022-10-25T17:58:25.975Z,54.40
2022-10-25T18:00:54.271Z,70.68
2022-10-25T18:03:21.189Z,47.95
2022-10-25T18:05:48.327Z,34.28
2022-10-25T18:08:15.417Z,40.38
2022-10-25T18:10:42.050Z,39.40
2022-10-25T18:13:08.683Z,35.72
2022-10-25T18:15:38.137Z,34.70
2022-10-25T18:18:04.779Z,32.38
2022-10-25T18:20:31.373Z,33.90
2022-10-25T18:22:57.973Z,33.17
2022-10-25T18:25:24.596Z,32.13
2022-10-25T18:27:51.634Z,34.20
2022-10-25T18:30:18.356Z,29.83
2022-10-25T18:32:45.355Z,33.53
2022-10-25T18:35:11.998Z,38.97
2022-10-25T18:37:38.603Z,38.65
2022-10-25T18:40:06.428Z,38.08
2022-10-25T18:42:35.345Z,36.13
2022-10-25T18:45:02.926Z,32.40
2022-10-25T18:47:29.572Z,35.80
2022-10-25T18:49:56.186Z,53.60
2022-10-25T18:52:23.231Z,52.85
2022-10-25T18:54:49.923Z,43.53
2022-10-25T18:57:17.507Z,60.75
2022-10-25T18:59:44.134Z,63.88
2022-10-25T19:02:11.506Z,62.35
2022-10-25T19:04:38.412Z,55.80
2022-10-25T19:07:05.043Z,75.30
2022-10-25T19:09:31.651Z,72.68
2022-10-25T19:11:58.249Z,69.00
2022-10-25T19:14:24.852Z,66.78
2022-10-25T19:16:51.517Z,62.88
2022-10-25T19:19:18.092Z,67.13
2022-10-25T19:21:44.790Z,65.53
2022-10-25T19:24:15.602Z,52.28
2022-10-25T19:26:42.288Z,49.70
2022-10-25T19:29:09.596Z,61.33
2022-10-25T19:31:36.286Z,49.22
2022-10-25T19:34:03.141Z,46.22
2022-10-25T19:36:30.323Z,61.42
2022-10-25T19:38:57.047Z,51.72
2022-10-25T19:41:25.597Z,48.55
2022-10-25T19:43:52.751Z,51.75
2022-10-25T19:46:19.746Z,39.08
2022-10-25T19:48:46.573Z,32.08
2022-10-25T19:51:15.918Z,32.33
2022-10-25T19:53:43.022Z,31.20
2022-10-25T19:56:13.245Z,32.08
2022-10-25T19:58:40.512Z,26.45
2022-10-25T20:01:13.450Z,31.52
2022-10-25T20:03:41.180Z,28.02
2022-10-25T20:06:17.479Z,29.17
2022-10-25T20:08:47.256Z,28.48
2022-10-25T20:11:15.495Z,27.38
2022-10-25T20:13:42.216Z,23.58
2022-10-25T20:16:10.005Z,23.13
2022-10-25T20:18:38.551Z,27.70
2022-10-25T20:21:07.271Z,30.17
2022-10-25T20:23:35.104Z,39.20
2022-10-25T20:26:15.789Z,32.97
2022-10-25T20:28:43.130Z,30.25
2022-10-25T20:31:10.531Z,25.48
2022-10-25T20:33:37.639Z,27.52
2022-10-25T20:36:07.447Z,23.23
2022-10-25T20:41:21.043Z,56.03
2022-10-25T20:43:50.143Z,29.98
2022-10-25T20:46:17.622Z,32.55
2022-10-25T20:48:45.591Z,24.50
2022-10-25T20:51:15.438Z,30.83
2022-10-25T20:53:46.298Z,29.73
2022-10-25T20:56:13.537Z,27.45
2022-10-25T20:58:41.375Z,27.92
2022-10-25T21:01:08.891Z,22.35
2022-10-25T21:03:36.102Z,27.58
2022-10-25T21:06:05.164Z,28.88
2022-10-25T21:08:32.757Z,23.10
2022-10-25T21:11:01.925Z,18.50
2022-10-25T21:13:33.457Z,20.30
2022-10-25T21:16:06.124Z,21.38
2022-10-25T21:18:33.236Z,30.38
2022-10-25T21:21:02.156Z,34.45
2022-10-25T21:23:28.849Z,24.27
2022-10-25T21:26:03.767Z,28.67
2022-10-25T21:31:09.838Z,25.30
2022-10-25T21:33:36.530Z,27.83
2022-10-25T21:36:11.590Z,16.65
2022-10-25T21:38:38.774Z,16.35
2022-10-25T21:41:13.695Z,15.13
2022-10-25T21:46:13.408Z,15.50
2022-10-25T21:48:40.536Z,14.77
2022-10-25T21:51:07.302Z,15.27
2022-10-25T21:53:33.938Z,16.80
2022-10-25T21:56:10.959Z,18.58
2022-10-25T21:58:41.920Z,16.10
2022-10-25T22:01:14.584Z,16.15
2022-10-25T22:03:41.632Z,20.38
2022-10-25T22:06:10.291Z,18.70
2022-10-25T22:08:37.080Z,15.93
2022-10-25T22:11:10.739Z,15.40
2022-10-25T22:13:37.331Z,19.88
2022-10-25T22:16:10.311Z,25.33
2022-10-25T22:18:37.220Z,21.58
2022-10-25T22:21:12.026Z,35.97
2022-10-25T22:23:39.629Z,48.50
2022-10-25T22:26:09.088Z,40.60
2022-10-25T22:28:39.814Z,46.17
2022-10-25T22:31:09.633Z,40.03
2022-10-25T22:33:36.900Z,38.53
2022-10-25T22:36:12.016Z,33.03
2022-10-25T22:38:39.203Z,34.55
2022-10-25T22:41:11.705Z,53.80
2022-10-25T22:43:39.214Z,47.85
2022-10-25T22:46:10.245Z,23.70
2022-10-25T22:48:38.356Z,22.33
2022-10-25T22:51:06.243Z,16.08
2022-10-25T22:53:35.349Z,21.02
2022-10-25T22:56:05.310Z,16.40
2022-10-25T22:58:33.738Z,16.67
2022-10-25T23:01:08.680Z,20.20
2022-10-25T23:03:43.779Z,31.45
2022-10-25T23:06:14.000Z,21.08
2022-10-25T23:08:41.598Z,25.23
2022-10-25T23:11:28.458Z,42.95
2022-10-25T23:13:57.240Z,26.73
2022-10-25T23:16:24.324Z,23.45
2022-10-25T23:18:51.471Z,25.73
2022-10-25T23:21:23.798Z,23.63
2022-10-25T23:23:52.647Z,21.40
2022-10-25T23:26:25.019Z,20.35
2022-10-25T23:28:51.980Z,24.05
2022-10-25T23:31:18.753Z,21.73
2022-10-25T23:33:45.594Z,18.73
2022-10-25T23:36:15.533Z,18.15
2022-10-25T23:38:43.337Z,21.45
2022-10-25T23:41:10.028Z,17.73
2022-10-25T23:43:37.012Z,18.25
2022-10-25T23:46:04.659Z,16.73
2022-10-25T23:48:31.450Z,20.25
2022-10-25T23:53:33.635Z,18.15
2022-10-25T23:56:01.242Z,23.80
2022-10-25T23:58:28.326Z,16.60
